Key Largo, FL

2:17 AM EDT on March 27, 2015 (GMT -0400)
Garden Cove Marina / Buzzards Roost | | Change Station
CLOSE
Current Station
Personal Weather Station
Location: Key Largo, FL
Elevation: 26 ft
Nearby Weather Stations

Elev 26 ft 25.17 °N, 80.37 °W | Updated 6 days ago

Clear
Clear
78 °F
Feels Like 78 °F
N
8
Wind Variable Wind from South
Gusts mph

Today
High -- | Low -- °F
--% Chance of Precip.
Yesterday
High -- | Low -- °F
Precip. -- in
7:18 AM 7:35 PM
Waxing Crescent, 49% visible
Pressure 29.96 in
Visibility 10.0 miles
Clouds Clear
Dew Point 71 °F
Humidity 80%
Rainfall in
Snow Depth Not available.
UV 0 out of 12
Pollen 8.20 out of 12
Air Quality Not available.
Flu Activity Not available.
METAR KHST 270558Z AUTO 18006KT 10SM CLR 25/22 A2995 RMK AO2 SLP145 60000 T02460223 10250 20237 58004

More Conditions Fewer Conditions

Pressure 29.96 in
Visibility 10.0 miles
Clouds Clear
Dew Point 71 °F
Humidity 80%
Rainfall in
Snow Depth Not available.
UV 0 out of 12
Pollen 8.20 out of 12
Air Quality Not available.
Flu Activity Not available.
METAR KHST 270558Z AUTO 18006KT 10SM CLR 25/22 A2995 RMK AO2 SLP145 60000 T02460223 10250 20237 58004

More Conditions Fewer Conditions

10-Day Weather Forecast

Almanac

Astronomy

Mar. 27, 2015 Rise Set
Actual Time
Civil Twilight
Nautical Twilight
Astronomical Twilight
Moon
Length of Visible Light
Length of Day
Tomorrow will be .
, % of the Moon is Illuminated

Today's Extremes

State Highs State Lows

Community

WunderPhotos

Upload Photos

1,808,700 photos uploaded!

WunderBlogs® & News

Nearby

Air Quality

  Air Quality AQ Index Pollutant
Not available.

Snow Depth

Station Depth Elevation

Earthquake Activity

City Distance Mag. Time & Date
Minimum magnitude displayed is 2.5.

Coastal Water Temperatures

Place Temperature

Stations

Nearby Weather Stations

Station Location Temp. Windchill Dew Point Humidity Wind Precip. Elev Updated Type